Generic selectors
Exact matches only
Search in title
Search in content
Post Type Selectors
Retour à l'actu

LFPG

METAR

LFPG 141130Z 27009KT CAVOK 29/11 Q1007 NOSIG

TAF

LFPG 141100Z
  • | 1412/1518 23010KT CAVOK TX29/1413Z TN18/1506Z
  • | TEMPO 1414/1424 4000 SHRA SCT045CB
  • | PROB40 TEMPO 1414/1421 21015G25KT 2500 TSRA BKN035CB
  • | PROB30 TEMPO 1506/1509 4000 -RA BKN010
  • | PROB40 TEMPO 1515/1518 3000 SHRA SCT040TCU